createdAt,value
2018-02-22T00:01:53.212Z,-0.40
2018-02-22T00:04:19.671Z,-0.30
2018-02-22T00:06:46.992Z,-0.40
2018-02-22T00:09:13.567Z,-0.40
2018-02-22T00:11:41.209Z,-0.40
2018-02-22T00:14:08.275Z,-0.40
2018-02-22T00:16:34.600Z,-0.50
2018-02-22T00:19:01.393Z,-0.50
2018-02-22T00:21:27.639Z,-0.50
2018-02-22T00:23:54.439Z,-0.60
2018-02-22T00:26:20.639Z,-0.60
2018-02-22T00:28:46.959Z,-0.60
2018-02-22T00:31:14.538Z,-0.70
2018-02-22T00:33:41.578Z,-0.60
2018-02-22T00:36:07.774Z,-0.70
2018-02-22T00:38:34.760Z,-0.60
2018-02-22T00:41:01.387Z,-0.60
2018-02-22T00:43:28.109Z,-0.60
2018-02-22T00:45:55.238Z,-0.50
2018-02-22T00:48:22.224Z,-0.50
2018-02-22T00:50:49.787Z,-0.50
2018-02-22T00:53:16.900Z,-0.50
2018-02-22T00:55:43.122Z,-0.50
2018-02-22T00:58:09.299Z,-0.40
2018-02-22T01:00:36.584Z,-0.60
2018-02-22T01:03:03.585Z,-0.60
2018-02-22T01:05:31.764Z,-0.50
2018-02-22T01:07:58.069Z,-0.60
2018-02-22T01:10:24.300Z,-0.60
2018-02-22T01:12:51.051Z,-0.50
2018-02-22T01:15:17.714Z,-0.50
2018-02-22T01:17:45.891Z,-0.30
2018-02-22T01:20:12.652Z,-0.50
2018-02-22T01:22:39.220Z,-0.50
2018-02-22T01:25:06.835Z,-0.30
2018-02-22T01:27:33.039Z,-0.40
2018-02-22T01:30:00.619Z,-0.50
2018-02-22T01:32:27.350Z,-0.50
2018-02-22T01:34:53.587Z,-0.40
2018-02-22T01:37:19.875Z,-0.40
2018-02-22T01:39:46.560Z,-0.40
2018-02-22T01:42:13.578Z,-0.30
2018-02-22T01:44:40.520Z,-0.40
2018-02-22T01:47:07.987Z,-0.40
2018-02-22T01:49:35.055Z,-0.30
2018-02-22T01:52:01.281Z,-0.30
2018-02-22T01:54:27.515Z,-0.30
2018-02-22T01:56:53.706Z,-0.30
2018-02-22T01:59:21.183Z,-0.20
2018-02-22T02:01:47.926Z,-0.20
2018-02-22T02:04:14.113Z,-0.20
2018-02-22T02:06:40.326Z,-0.10
2018-02-22T02:09:07.548Z,-0.10
2018-02-22T02:11:34.043Z,-0.10
2018-02-22T02:14:01.311Z,-0.10
2018-02-22T02:16:28.865Z,-0.10
2018-02-22T02:18:56.454Z,-0.20
2018-02-22T02:21:23.728Z,-0.20
2018-02-22T02:23:49.910Z,-0.30
2018-02-22T02:26:16.390Z,-0.40
2018-02-22T02:28:42.988Z,-0.40
2018-02-22T02:31:10.110Z,-0.40
2018-02-22T02:33:37.091Z,-0.50
2018-02-22T02:36:04.328Z,-0.50
2018-02-22T02:38:32.247Z,-0.50
2018-02-22T02:40:59.731Z,-0.60
2018-02-22T02:43:26.689Z,-0.60
2018-02-22T02:45:53.635Z,-0.60
2018-02-22T02:48:20.038Z,-0.60
2018-02-22T02:50:46.215Z,-0.60
2018-02-22T02:53:13.022Z,-0.70
2018-02-22T02:55:40.455Z,-0.80
2018-02-22T02:58:06.702Z,-0.80
2018-02-22T03:00:34.155Z,-0.90
2018-02-22T03:03:01.831Z,-0.90
2018-02-22T03:05:29.405Z,-0.90
2018-02-22T03:07:56.458Z,-0.90
2018-02-22T03:10:22.668Z,-0.90
2018-02-22T03:12:48.921Z,-0.90
2018-02-22T03:15:15.137Z,-1.00
2018-02-22T03:17:41.354Z,-1.00
2018-02-22T03:20:08.267Z,-1.00
2018-02-22T03:22:35.752Z,-1.10
2018-02-22T03:25:03.791Z,-1.00
2018-02-22T03:27:30.555Z,-1.10
2018-02-22T03:29:57.503Z,-1.00
2018-02-22T03:32:24.629Z,-1.10
2018-02-22T03:34:52.156Z,-1.20
2018-02-22T03:37:18.351Z,-1.20
2018-02-22T03:39:44.543Z,-1.20
2018-02-22T03:42:10.730Z,-1.20
2018-02-22T03:44:36.995Z,-1.10
2018-02-22T03:47:04.170Z,-1.00
2018-02-22T03:49:31.983Z,-1.10
2018-02-22T03:51:58.405Z,-1.10
2018-02-22T03:54:24.897Z,-1.20
2018-02-22T03:56:51.641Z,-1.20
2018-02-22T03:59:18.595Z,-1.30
2018-02-22T04:01:44.997Z,-1.30
2018-02-22T04:04:12.206Z,-1.20
2018-02-22T04:06:38.606Z,-1.20
2018-02-22T04:09:06.281Z,-1.20
2018-02-22T04:11:32.686Z,-1.20
2018-02-22T04:13:59.826Z,-1.00
2018-02-22T04:16:26.642Z,-1.00
2018-02-22T04:18:52.864Z,-1.10
2018-02-22T04:21:19.344Z,-1.00
2018-02-22T04:23:46.380Z,-1.00
2018-02-22T04:26:13.848Z,-1.00
2018-02-22T04:28:40.153Z,-1.00
2018-02-22T04:31:06.398Z,-1.00
2018-02-22T04:33:33.371Z,-1.00
2018-02-22T04:36:00.356Z,-1.00
2018-02-22T04:38:27.388Z,-1.20
2018-02-22T04:40:54.388Z,-1.20
2018-02-22T04:43:21.412Z,-1.20
2018-02-22T04:45:47.619Z,-1.20
2018-02-22T04:48:14.052Z,-1.20
2018-02-22T04:50:40.282Z,-1.10
2018-02-22T04:53:06.799Z,-1.10
2018-02-22T04:55:33.787Z,-1.20
2018-02-22T04:57:59.990Z,-1.20
2018-02-22T05:00:26.208Z,-1.20
2018-02-22T05:02:52.436Z,-1.00
2018-02-22T05:05:19.280Z,-1.00
2018-02-22T05:07:46.072Z,-1.10
2018-02-22T05:10:13.221Z,-1.10
2018-02-22T05:12:40.179Z,-1.00
2018-02-22T05:15:07.423Z,-1.00
2018-02-22T05:17:35.113Z,-0.90
2018-02-22T05:20:01.875Z,-0.90
2018-02-22T05:22:28.672Z,-0.90
2018-02-22T05:24:54.885Z,-0.90
2018-02-22T05:27:21.815Z,-1.00
2018-02-22T05:29:48.426Z,-1.00
2018-02-22T05:32:15.986Z,-0.90
2018-02-22T05:34:42.308Z,-0.90
2018-02-22T05:37:09.099Z,-0.80
2018-02-22T05:39:36.665Z,-0.80
2018-02-22T05:42:03.053Z,-0.90
2018-02-22T05:44:29.285Z,-0.80
2018-02-22T05:46:55.628Z,-0.80
2018-02-22T05:49:21.847Z,-0.70
2018-02-22T05:51:48.405Z,-0.70
2018-02-22T05:54:16.315Z,-0.70
2018-02-22T05:56:42.543Z,-0.70
2018-02-22T05:59:09.214Z,-0.60
2018-02-22T06:01:35.548Z,-0.70
2018-02-22T06:04:03.058Z,-0.70
2018-02-22T06:06:30.158Z,-0.60
2018-02-22T06:08:57.049Z,-0.70
2018-02-22T06:11:23.300Z,-0.60
2018-02-22T06:13:49.774Z,-0.50
2018-02-22T06:16:15.984Z,-0.50
2018-02-22T06:18:42.796Z,-0.50
2018-02-22T06:21:09.009Z,-0.50
2018-02-22T06:23:35.392Z,-0.70
2018-02-22T06:26:01.672Z,-0.60
2018-02-22T06:28:28.724Z,-0.70
2018-02-22T06:30:54.931Z,-0.60
2018-02-22T06:33:21.539Z,-0.60
2018-02-22T06:35:48.483Z,-0.60
2018-02-22T06:38:15.427Z,-0.70
2018-02-22T06:40:42.335Z,-0.60
2018-02-22T06:43:09.979Z,-0.70
2018-02-22T06:45:36.200Z,-0.70
2018-02-22T06:48:03.451Z,-0.70
2018-02-22T06:50:30.033Z,-0.70
2018-02-22T06:52:56.694Z,-0.90
2018-02-22T06:55:23.088Z,-0.70
2018-02-22T06:57:49.452Z,-0.60
2018-02-22T07:00:16.345Z,-0.60
2018-02-22T07:02:42.590Z,-0.70
2018-02-22T07:05:09.322Z,-0.60
2018-02-22T07:07:36.549Z,-0.70
2018-02-22T07:10:02.750Z,-0.60
2018-02-22T07:12:29.712Z,-0.60
2018-02-22T07:14:56.574Z,-0.50
2018-02-22T07:17:23.316Z,-0.50
2018-02-22T07:19:50.755Z,-0.50
2018-02-22T07:22:17.651Z,-0.60
2018-02-22T07:24:44.367Z,-0.50
2018-02-22T07:27:10.563Z,-0.40
2018-02-22T07:29:37.105Z,-0.50
2018-02-22T07:32:04.816Z,-0.30
2018-02-22T07:34:31.813Z,-0.30
2018-02-22T07:36:59.660Z,-0.40
2018-02-22T07:39:26.198Z,-0.40
2018-02-22T07:41:52.431Z,-0.50
2018-02-22T07:44:18.660Z,-0.30
2018-02-22T07:46:45.266Z,-0.30
2018-02-22T07:49:12.209Z,-0.40
2018-02-22T07:51:39.677Z,-0.40
2018-02-22T07:54:06.607Z,-0.40
2018-02-22T07:56:32.846Z,-0.40
2018-02-22T07:58:59.816Z,-0.30
2018-02-22T08:01:26.146Z,-0.30
2018-02-22T08:03:52.812Z,-0.20
2018-02-22T08:06:19.820Z,-0.10
2018-02-22T08:08:47.335Z,-0.20
2018-02-22T08:11:14.087Z,-0.20
2018-02-22T08:13:40.295Z,-0.20
2018-02-22T08:16:06.539Z,-0.10
2018-02-22T08:18:32.951Z,0.00
2018-02-22T08:20:59.394Z,0.30
2018-02-22T08:23:26.751Z,0.80
2018-02-22T08:25:54.097Z,1.20
2018-02-22T08:28:20.434Z,1.10
2018-02-22T08:30:47.496Z,1.50
2018-02-22T08:33:14.296Z,1.80
2018-02-22T08:35:41.586Z,2.10
2018-02-22T08:38:09.027Z,2.30
2018-02-22T08:40:36.006Z,2.60
2018-02-22T08:43:02.960Z,2.80
2018-02-22T08:45:30.132Z,3.20
2018-02-22T08:47:56.421Z,3.20
2018-02-22T08:50:23.660Z,3.40
2018-02-22T08:52:49.882Z,3.60
2018-02-22T08:55:16.640Z,3.70
2018-02-22T08:57:43.668Z,4.10
2018-02-22T09:00:09.877Z,4.10
2018-02-22T09:02:36.865Z,4.30
2018-02-22T09:05:04.442Z,4.60
2018-02-22T09:07:31.207Z,4.60
2018-02-22T09:09:57.442Z,4.70
2018-02-22T09:12:24.240Z,5.00
2018-02-22T09:14:51.248Z,5.20
2018-02-22T09:17:17.513Z,5.20
2018-02-22T09:19:44.480Z,5.30
2018-02-22T09:22:10.896Z,5.20
2018-02-22T09:24:38.133Z,4.70
2018-02-22T09:27:05.091Z,4.10
2018-02-22T09:29:32.194Z,3.90
2018-02-22T09:31:59.121Z,3.80
2018-02-22T09:34:25.938Z,4.20
2018-02-22T09:36:52.332Z,4.70
2018-02-22T09:39:18.858Z,4.10
2018-02-22T09:41:45.691Z,4.20
2018-02-22T09:44:12.456Z,4.00
2018-02-22T09:46:39.025Z,3.80
2018-02-22T09:49:06.146Z,3.90
2018-02-22T09:51:33.538Z,3.50
2018-02-22T09:54:00.908Z,3.60
2018-02-22T09:56:28.119Z,3.50
2018-02-22T09:58:55.536Z,3.40
2018-02-22T10:01:21.970Z,3.40
2018-02-22T10:03:49.694Z,3.20
2018-02-22T10:06:17.218Z,3.00
2018-02-22T10:08:44.569Z,3.00
2018-02-22T10:11:11.991Z,2.90
2018-02-22T10:13:39.709Z,2.70
2018-02-22T10:16:06.156Z,2.70
2018-02-22T10:18:34.092Z,2.10
2018-02-22T10:21:01.058Z,2.10
2018-02-22T10:23:29.710Z,2.30
2018-02-22T10:25:56.174Z,2.30
2018-02-22T10:28:22.387Z,2.50
2018-02-22T10:30:50.358Z,2.40
2018-02-22T10:33:18.097Z,2.40
2018-02-22T10:35:45.360Z,2.50
2018-02-22T10:38:12.929Z,2.70
2018-02-22T10:40:39.950Z,2.70
2018-02-22T10:43:06.198Z,2.70
2018-02-22T10:45:33.432Z,3.10
2018-02-22T10:48:00.448Z,3.30
2018-02-22T10:50:26.670Z,3.20
2018-02-22T10:52:54.613Z,3.10
2018-02-22T10:55:21.103Z,3.10
2018-02-22T10:57:48.724Z,2.90
2018-02-22T11:00:14.938Z,2.80
2018-02-22T11:02:57.633Z,3.10
2018-02-22T11:05:25.161Z,3.50
2018-02-22T11:07:52.208Z,3.50
2018-02-22T11:10:19.199Z,3.70
2018-02-22T11:12:46.065Z,3.70
2018-02-22T11:15:12.413Z,3.70
2018-02-22T11:17:38.816Z,3.80
2018-02-22T11:20:05.045Z,4.10
2018-02-22T11:22:31.266Z,4.20
2018-02-22T11:24:57.562Z,4.20
2018-02-22T11:27:24.000Z,3.90
2018-02-22T11:29:51.592Z,4.10
2018-02-22T11:32:18.328Z,4.00
2018-02-22T11:34:44.995Z,4.20
2018-02-22T11:37:12.451Z,4.70
2018-02-22T11:39:39.793Z,4.70
2018-02-22T11:42:05.989Z,4.70
2018-02-22T11:44:33.620Z,5.20
2018-02-22T11:47:00.618Z,5.00
2018-02-22T11:49:27.420Z,5.00
2018-02-22T11:51:54.936Z,5.10
2018-02-22T11:54:21.414Z,5.10
2018-02-22T11:56:48.384Z,5.10
2018-02-22T11:59:14.576Z,5.00
2018-02-22T12:01:41.117Z,5.10
2018-02-22T12:04:08.068Z,5.70
2018-02-22T12:06:35.042Z,5.70
2018-02-22T12:09:01.215Z,5.70
2018-02-22T12:11:27.419Z,5.50
2018-02-22T12:13:53.644Z,5.60
2018-02-22T12:16:20.633Z,5.90
2018-02-22T12:18:47.971Z,6.30
2018-02-22T12:21:14.176Z,6.20
2018-02-22T12:23:40.406Z,5.60
2018-02-22T12:26:07.173Z,5.60
2018-02-22T12:28:34.321Z,5.50
2018-02-22T12:31:00.569Z,5.50
2018-02-22T12:33:27.708Z,5.60
2018-02-22T12:35:55.925Z,5.20
2018-02-22T12:38:22.144Z,5.20
2018-02-22T12:40:48.978Z,5.40
2018-02-22T12:43:15.230Z,5.40
2018-02-22T12:45:41.966Z,5.30
2018-02-22T12:48:08.904Z,5.60
2018-02-22T12:50:35.966Z,5.80
2018-02-22T12:53:03.013Z,5.60
2018-02-22T12:55:29.203Z,5.60
2018-02-22T12:57:56.798Z,5.50
2018-02-22T13:00:23.242Z,5.50
2018-02-22T13:02:49.811Z,5.30
2018-02-22T13:05:16.698Z,5.30
2018-02-22T13:07:44.038Z,5.30
2018-02-22T13:10:10.294Z,5.40
2018-02-22T13:12:36.545Z,5.50
2018-02-22T13:15:02.795Z,5.40
2018-02-22T13:17:29.152Z,5.20
2018-02-22T13:19:55.534Z,5.30
2018-02-22T13:22:22.232Z,5.20
2018-02-22T13:24:49.882Z,5.00
2018-02-22T13:27:16.163Z,4.90
2018-02-22T13:29:42.449Z,4.70
2018-02-22T13:32:08.891Z,4.70
2018-02-22T13:34:35.164Z,4.70
2018-02-22T13:40:02.942Z,4.30
2018-02-22T13:42:29.817Z,4.40
2018-02-22T13:45:09.087Z,4.60
2018-02-22T13:47:35.298Z,4.60
2018-02-22T13:50:27.954Z,4.60
2018-02-22T13:52:55.284Z,4.40
2018-02-22T13:55:22.231Z,4.30
2018-02-22T13:57:50.662Z,4.30
2018-02-22T14:00:29.106Z,4.20
2018-02-22T14:02:56.104Z,4.30
2018-02-22T14:05:22.323Z,4.30
2018-02-22T14:07:48.509Z,4.10
2018-02-22T14:10:16.077Z,4.40
2018-02-22T14:12:43.047Z,4.30
2018-02-22T14:15:09.478Z,4.30
2018-02-22T14:17:35.700Z,4.20
2018-02-22T14:20:01.982Z,4.20
2018-02-22T14:22:28.323Z,4.30
2018-02-22T14:24:54.512Z,4.10
2018-02-22T14:27:20.740Z,3.90
2018-02-22T14:29:47.003Z,3.50
2018-02-22T14:32:13.476Z,3.60
2018-02-22T14:34:39.782Z,3.40
2018-02-22T14:37:06.850Z,3.40
2018-02-22T14:39:33.707Z,3.40
2018-02-22T14:41:59.926Z,3.40
2018-02-22T14:44:26.183Z,3.50
2018-02-22T14:46:53.126Z,3.60
2018-02-22T14:49:20.768Z,3.40
2018-02-22T14:51:47.858Z,3.10
2018-02-22T14:54:14.085Z,3.00
2018-02-22T14:56:40.496Z,3.10
2018-02-22T14:59:07.709Z,3.00
2018-02-22T15:01:33.926Z,2.90
2018-02-22T15:04:00.874Z,2.90
2018-02-22T15:06:28.500Z,2.80
2018-02-22T15:08:54.999Z,2.80
2018-02-22T15:11:23.050Z,2.80
2018-02-22T15:13:49.569Z,2.80
2018-02-22T15:16:17.048Z,2.40
2018-02-22T15:18:44.135Z,2.20
2018-02-22T15:21:10.567Z,2.20
2018-02-22T15:23:36.807Z,2.40
2018-02-22T15:26:03.182Z,2.40
2018-02-22T15:28:29.422Z,2.20
2018-02-22T15:30:55.661Z,2.30
2018-02-22T15:33:21.877Z,2.40
2018-02-22T15:35:48.181Z,2.50
2018-02-22T15:38:15.115Z,2.20
2018-02-22T15:40:41.354Z,2.20
2018-02-22T15:43:08.381Z,2.10
2018-02-22T15:45:34.596Z,2.10
2018-02-22T15:48:01.652Z,2.00
2018-02-22T15:50:29.422Z,1.90
2018-02-22T15:52:56.035Z,1.90
2018-02-22T15:55:22.255Z,1.80
2018-02-22T15:57:48.454Z,1.90
2018-02-22T16:00:14.696Z,1.90
2018-02-22T16:02:41.618Z,1.80
2018-02-22T16:05:07.850Z,1.70
2018-02-22T16:07:34.969Z,1.70
2018-02-22T16:10:01.956Z,1.60
2018-02-22T16:12:28.251Z,1.60
2018-02-22T16:14:55.827Z,1.60
2018-02-22T16:17:22.060Z,1.60
2018-02-22T16:19:48.859Z,1.70
2018-02-22T16:22:15.334Z,1.60
2018-02-22T16:24:42.385Z,1.50
2018-02-22T16:27:08.624Z,1.40
2018-02-22T16:29:35.392Z,1.60
2018-02-22T16:32:01.623Z,1.40
2018-02-22T16:34:27.968Z,1.40
2018-02-22T16:36:54.692Z,1.40
2018-02-22T16:39:21.183Z,1.50
2018-02-22T16:41:48.236Z,1.40
2018-02-22T16:44:15.030Z,1.40
2018-02-22T16:46:42.120Z,1.30
2018-02-22T16:49:08.539Z,1.30
2018-02-22T16:51:35.477Z,1.30
2018-02-22T16:54:02.801Z,1.20
2018-02-22T16:56:30.048Z,1.20
2018-02-22T16:58:56.247Z,1.20
2018-02-22T17:01:22.539Z,1.10
2018-02-22T17:03:49.609Z,1.10
2018-02-22T17:06:16.642Z,1.10
2018-02-22T17:08:43.720Z,1.00
2018-02-22T17:11:10.953Z,1.00
2018-02-22T17:16:08.614Z,1.00
2018-02-22T17:18:35.689Z,0.80
2018-02-22T17:21:01.933Z,0.80
2018-02-22T17:23:28.696Z,0.80
2018-02-22T17:26:01.301Z,0.80
2018-02-22T17:28:34.859Z,0.80
2018-02-22T17:31:07.285Z,0.80
2018-02-22T17:33:34.756Z,0.80
2018-02-22T17:36:01.843Z,0.80
2018-02-22T17:38:34.690Z,0.80
2018-02-22T17:41:11.945Z,0.70
2018-02-22T17:43:39.113Z,0.60
2018-02-22T17:46:06.070Z,0.60
2018-02-22T17:48:32.374Z,0.60
2018-02-22T17:50:59.459Z,0.60
2018-02-22T17:53:25.690Z,0.60
2018-02-22T17:55:52.865Z,0.60
2018-02-22T17:58:20.359Z,0.60
2018-02-22T18:00:47.478Z,0.70
2018-02-22T18:03:14.376Z,0.70
2018-02-22T18:05:40.648Z,0.60
2018-02-22T18:08:08.032Z,0.60
2018-02-22T18:10:35.025Z,0.50
2018-02-22T18:13:01.759Z,0.50
2018-02-22T18:15:28.085Z,0.60
2018-02-22T18:17:54.964Z,0.80
2018-02-22T18:20:22.312Z,0.60
2018-02-22T18:22:48.559Z,0.60
2018-02-22T18:25:15.380Z,0.60
2018-02-22T18:27:41.714Z,0.50
2018-02-22T18:30:08.235Z,0.40
2018-02-22T18:32:35.784Z,0.50
2018-02-22T18:35:02.590Z,0.40
2018-02-22T18:37:35.257Z,0.30
2018-02-22T18:40:08.477Z,0.30
2018-02-22T18:42:35.207Z,0.30
2018-02-22T18:45:08.057Z,0.40
2018-02-22T18:47:35.300Z,0.40
2018-02-22T18:50:02.544Z,0.40
2018-02-22T18:52:30.750Z,0.40
2018-02-22T18:54:57.711Z,0.30
2018-02-22T18:57:23.940Z,0.30
2018-02-22T18:59:50.228Z,0.20
2018-02-22T19:02:17.278Z,0.30
2018-02-22T19:04:44.042Z,0.30
2018-02-22T19:07:10.470Z,0.10
2018-02-22T19:09:38.360Z,0.10
2018-02-22T19:12:05.878Z,0.10
2018-02-22T19:14:32.377Z,0.10
2018-02-22T19:16:58.756Z,0.20
2018-02-22T19:19:25.284Z,0.10
2018-02-22T19:21:53.646Z,0.10
2018-02-22T19:24:20.167Z,0.10
2018-02-22T19:26:47.181Z,0.00
2018-02-22T19:29:13.455Z,0.00
2018-02-22T19:31:41.265Z,0.00
2018-02-22T19:34:08.804Z,0.00
2018-02-22T19:36:36.041Z,0.10
2018-02-22T19:39:03.310Z,0.20
2018-02-22T19:41:30.420Z,0.30
2018-02-22T19:43:56.651Z,0.30
2018-02-22T19:46:23.553Z,0.40
2018-02-22T19:48:50.412Z,0.20
2018-02-22T19:51:18.152Z,0.50
2018-02-22T19:53:46.439Z,0.50
2018-02-22T19:56:13.039Z,0.60
2018-02-22T19:58:39.306Z,0.60
2018-02-22T20:01:06.141Z,0.70
2018-02-22T20:03:32.853Z,0.70
2018-02-22T20:06:00.889Z,0.70
2018-02-22T20:08:27.288Z,0.70
2018-02-22T20:10:54.000Z,0.80
2018-02-22T20:13:22.726Z,0.80
2018-02-22T20:15:48.981Z,0.80
2018-02-22T20:18:15.192Z,0.90
2018-02-22T20:20:41.458Z,0.80
2018-02-22T20:23:09.171Z,0.80
2018-02-22T20:25:37.143Z,0.80
2018-02-22T20:28:04.488Z,0.70
2018-02-22T20:30:31.535Z,0.80
2018-02-22T20:32:57.749Z,0.80
2018-02-22T20:35:24.599Z,0.80
2018-02-22T20:37:51.395Z,0.90
2018-02-22T20:40:17.611Z,0.90
2018-02-22T20:42:44.815Z,0.90
2018-02-22T20:45:14.267Z,1.00
2018-02-22T20:47:41.193Z,1.00
2018-02-22T20:50:07.616Z,0.90
2018-02-22T20:52:34.395Z,1.00
2018-02-22T20:55:06.512Z,1.00
2018-02-22T20:57:33.364Z,0.90
2018-02-22T21:00:00.457Z,0.90
2018-02-22T21:02:27.443Z,0.90
2018-02-22T21:04:54.528Z,0.90
2018-02-22T21:07:22.454Z,0.60
2018-02-22T21:09:48.750Z,0.60
2018-02-22T21:12:15.167Z,0.60
2018-02-22T21:14:43.335Z,0.60
2018-02-22T21:17:10.080Z,0.70
2018-02-22T21:19:37.110Z,0.60
2018-02-22T21:22:03.550Z,0.60
2018-02-22T21:24:29.786Z,0.60
2018-02-22T21:26:56.159Z,0.50
2018-02-22T21:29:23.330Z,0.50
2018-02-22T21:31:50.841Z,0.50
2018-02-22T21:34:17.172Z,0.40
2018-02-22T21:36:44.104Z,0.40
2018-02-22T21:39:11.066Z,0.40
2018-02-22T21:41:38.168Z,0.40
2018-02-22T21:44:04.377Z,0.40
2018-02-22T21:46:30.811Z,0.40
2018-02-22T21:48:57.270Z,0.30
2018-02-22T21:51:23.554Z,0.20
2018-02-22T21:53:49.822Z,0.20
2018-02-22T21:56:16.055Z,0.30
2018-02-22T21:58:43.075Z,0.40
2018-02-22T22:01:10.106Z,0.40
2018-02-22T22:03:36.503Z,0.40
2018-02-22T22:06:03.204Z,0.40
2018-02-22T22:08:30.569Z,0.40
2018-02-22T22:10:56.797Z,0.40
2018-02-22T22:13:25.053Z,0.50
2018-02-22T22:15:51.267Z,0.40
2018-02-22T22:18:17.658Z,0.40
2018-02-22T22:20:43.850Z,0.40
2018-02-22T22:23:10.480Z,0.30
2018-02-22T22:25:37.482Z,0.10
2018-02-22T22:28:04.841Z,0.00
2018-02-22T22:30:31.787Z,0.00
2018-02-22T22:32:59.388Z,0.00
2018-02-22T22:35:27.107Z,0.00
2018-02-22T22:37:54.571Z,0.10
2018-02-22T22:40:21.620Z,0.20
2018-02-22T22:42:47.824Z,0.20
2018-02-22T22:45:14.407Z,0.30
2018-02-22T22:47:40.587Z,0.40
2018-02-22T22:50:07.055Z,0.40
2018-02-22T22:52:33.265Z,0.30
2018-02-22T22:55:00.267Z,0.40
2018-02-22T22:57:26.851Z,0.40
2018-02-22T22:59:54.213Z,0.30
2018-02-22T23:02:21.390Z,0.30
2018-02-22T23:04:48.196Z,0.30
2018-02-22T23:07:16.414Z,0.30
2018-02-22T23:09:43.321Z,0.30
2018-02-22T23:12:11.034Z,0.30
2018-02-22T23:14:37.281Z,0.30
2018-02-22T23:17:03.514Z,0.30
2018-02-22T23:19:30.497Z,0.20
2018-02-22T23:21:56.697Z,0.20
2018-02-22T23:24:23.631Z,0.10
2018-02-22T23:26:49.845Z,0.10
2018-02-22T23:29:16.090Z,0.10
2018-02-22T23:31:43.644Z,-0.10
2018-02-22T23:34:10.843Z,-0.10
2018-02-22T23:36:37.559Z,0.00
2018-02-22T23:39:04.568Z,-0.30
2018-02-22T23:41:46.936Z,-0.30
2018-02-22T23:44:13.382Z,-0.20
2018-02-22T23:46:39.880Z,-0.40
2018-02-22T23:49:06.940Z,-0.30
2018-02-22T23:51:33.751Z,-0.40
2018-02-22T23:54:00.929Z,-0.30
2018-02-22T23:56:28.126Z,-0.30
2018-02-22T23:58:54.907Z,-0.30
